Terminal Aerodrome Forecast
Issued by NWS Jacksonville, FL

Home | Current Version | Previous Version | Text Only | Print | Product List | Glossary On
Versions: 1 2 3 4 5 6 7 8 9 10 11 12 13 14 15 16 17 18 19 20 21
000
FTUS42 KJAX 061721
TAFSSI
TAF
KSSI 061721Z 0618/0718 04012G20KT P6SM BKN035
     FM062300 03010KT P6SM SCT030 BKN250
     FM070800 35008KT P6SM SCT040 SCT250
     FM071400 33014G22KT P6SM SCT035 BKN250=

USA.gov is the U.S. government's official web portal to all federal, state and local government web resources and services.